Albert, Oklahoma
Current Conditions -  °F | °C
As of 11:35 PM on Tuesday 21 Oct 2014 (Local Time) from KOJA Reporting Station
Clear Clear  
Wind Chill: 64°   Ceiling: Unl
Heat Index: 64°   Visibility: 10mi
Dew Point: 54°   Wind: 7mph
Humidity: 68%   Direction: 170°S
Pressure: 30.07"   Gusts: NA
Location:  35.23°N, 98.41°W
Report Text: KOJA 220435Z AUTO 17006KT 10SM CLR 18/12 A3007 RMK AO2
Loading
Personal Weather Stations






























Interactive Weather Map
Tropical Storm Tracking
New forecast layout! Learn more

10-Day Weather Forecast

Advertisements
Track Severe Weather on mobile